sensor_id;sensor_type;location;lat;lon;timestamp;pressure;altitude;pressure_sealevel;temperature;humidity
4972;BME280;2501;51.214;6.768;2022-09-25T00:01:36;101088.41;;;13.05;88.73
4972;BME280;2501;51.214;6.768;2022-09-25T00:04:05;101087.50;;;13.00;88.68
4972;BME280;2501;51.214;6.768;2022-09-25T00:06:33;101092.78;;;12.94;88.92
4972;BME280;2501;51.214;6.768;2022-09-25T00:09:02;101099.81;;;13.01;89.06
4972;BME280;2501;51.214;6.768;2022-09-25T00:11:32;101091.91;;;12.92;89.20
4972;BME280;2501;51.214;6.768;2022-09-25T00:14:01;101102.41;;;12.84;89.45
4972;BME280;2501;51.214;6.768;2022-09-25T00:16:32;101095.41;;;12.91;89.56
4972;BME280;2501;51.214;6.768;2022-09-25T00:19:01;101096.28;;;12.87;89.52
4972;BME280;2501;51.214;6.768;2022-09-25T00:21:42;101091.88;;;12.86;89.79
4972;BME280;2501;51.214;6.768;2022-09-25T00:24:17;101091.00;;;12.82;89.95
4972;BME280;2501;51.214;6.768;2022-09-25T00:26:46;101096.25;;;12.75;89.91
4972;BME280;2501;51.214;6.768;2022-09-25T00:29:17;101085.75;;;12.87;90.26
4972;BME280;2501;51.214;6.768;2022-09-25T00:31:54;101094.53;;;12.80;90.30
4972;BME280;2501;51.214;6.768;2022-09-25T00:34:23;101083.97;;;12.83;89.78
4972;BME280;2501;51.214;6.768;2022-09-25T00:36:52;101084.88;;;12.86;89.86
4972;BME280;2501;51.214;6.768;2022-09-25T00:39:20;101084.88;;;12.86;90.04
4972;BME280;2501;51.214;6.768;2022-09-25T00:41:50;101085.75;;;12.78;89.69
4972;BME280;2501;51.214;6.768;2022-09-25T00:44:51;101091.94;;;12.97;89.67
4972;BME280;2501;51.214;6.768;2022-09-25T00:47:28;101084.88;;;12.85;89.59
4972;BME280;2501;51.214;6.768;2022-09-25T00:49:59;101083.16;;;12.95;89.39
4972;BME280;2501;51.214;6.768;2022-09-25T00:52:30;101084.91;;;12.96;89.15
4972;BME280;2501;51.214;6.768;2022-09-25T00:55:02;101098.94;;;12.92;88.62
4972;BME280;2501;51.214;6.768;2022-09-25T00:57:34;101094.50;;;12.83;88.72
4972;BME280;2501;51.214;6.768;2022-09-25T01:00:08;101097.16;;;12.89;88.64
4972;BME280;2501;51.214;6.768;2022-09-25T01:02:42;101100.69;;;12.91;88.09
4972;BME280;2501;51.214;6.768;2022-09-25T01:05:13;101097.16;;;12.90;88.24
4972;BME280;2501;51.214;6.768;2022-09-25T01:07:44;101103.28;;;12.85;88.54
4972;BME280;2501;51.214;6.768;2022-09-25T01:10:14;101109.44;;;12.79;88.59
4972;BME280;2501;51.214;6.768;2022-09-25T01:12:45;101097.97;;;12.61;88.51
4972;BME280;2501;51.214;6.768;2022-09-25T01:15:15;101105.03;;;12.72;88.84
4972;BME280;2501;51.214;6.768;2022-09-25T01:17:52;101097.16;;;12.80;88.54
4972;BME280;2501;51.214;6.768;2022-09-25T01:20:35;101095.38;;;12.76;87.93
4972;BME280;2501;51.214;6.768;2022-09-25T01:23:16;101093.66;;;12.87;87.42
4972;BME280;2501;51.214;6.768;2022-09-25T01:25:59;101094.50;;;12.71;87.09
4972;BME280;2501;51.214;6.768;2022-09-25T01:28:53;101100.63;;;12.73;87.79
4972;BME280;2501;51.214;6.768;2022-09-25T01:31:31;101092.72;;;12.70;88.51
4972;BME280;2501;51.214;6.768;2022-09-25T01:34:07;101098.00;;;12.70;89.10
4972;BME280;2501;51.214;6.768;2022-09-25T01:36:46;101097.13;;;12.69;89.48
4972;BME280;2501;51.214;6.768;2022-09-25T01:39:19;101104.97;;;12.57;90.51
4972;BME280;2501;51.214;6.768;2022-09-25T01:41:51;101096.22;;;12.57;91.08
4972;BME280;2501;51.214;6.768;2022-09-25T01:44:28;101095.34;;;12.62;91.68
4972;BME280;2501;51.214;6.768;2022-09-25T01:47:03;101110.22;;;12.52;91.58
4972;BME280;2501;51.214;6.768;2022-09-25T01:49:38;101102.34;;;12.65;91.63
4972;BME280;2501;51.214;6.768;2022-09-25T01:52:12;101110.25;;;12.60;91.70
4972;BME280;2501;51.214;6.768;2022-09-25T01:54:44;101113.72;;;12.54;91.79
4972;BME280;2501;51.214;6.768;2022-09-25T01:57:17;101121.53;;;12.32;91.80
4972;BME280;2501;51.214;6.768;2022-09-25T01:59:53;101118.09;;;12.42;92.23
4972;BME280;2501;51.214;6.768;2022-09-25T02:02:26;101122.47;;;12.50;92.38
4972;BME280;2501;51.214;6.768;2022-09-25T02:04:58;101111.94;;;12.43;92.80
4972;BME280;2501;51.214;6.768;2022-09-25T02:07:34;101112.78;;;12.36;93.06
4972;BME280;2501;51.214;6.768;2022-09-25T02:10:07;101114.50;;;12.26;93.45
4972;BME280;2501;51.214;6.768;2022-09-25T02:12:41;101113.63;;;12.27;94.02
4972;BME280;2501;51.214;6.768;2022-09-25T02:15:17;101127.59;;;12.17;94.44
4972;BME280;2501;51.214;6.768;2022-09-25T02:17:51;101117.94;;;12.16;95.37
4972;BME280;2501;51.214;6.768;2022-09-25T02:20:34;101126.63;;;12.00;96.52
4972;BME280;2501;51.214;6.768;2022-09-25T02:23:11;101114.41;;;12.09;97.30
4972;BME280;2501;51.214;6.768;2022-09-25T02:25:44;101124.03;;;12.07;97.18
4972;BME280;2501;51.214;6.768;2022-09-25T02:28:13;101113.47;;;11.94;96.85
4972;BME280;2501;51.214;6.768;2022-09-25T02:30:45;101122.22;;;11.97;97.17
4972;BME280;2501;51.214;6.768;2022-09-25T02:33:14;101118.78;;;12.07;96.76
4972;BME280;2501;51.214;6.768;2022-09-25T02:35:42;101119.63;;;12.03;96.17
4972;BME280;2501;51.214;6.768;2022-09-25T02:38:11;101110.91;;;12.15;95.26
4972;BME280;2501;51.214;6.768;2022-09-25T02:40:45;101117.06;;;12.11;94.39
4972;BME280;2501;51.214;6.768;2022-09-25T02:43:24;101113.59;;;12.21;93.53
4972;BME280;2501;51.214;6.768;2022-09-25T02:46:05;101120.63;;;12.25;93.04
4972;BME280;2501;51.214;6.768;2022-09-25T02:48:43;101107.47;;;12.30;92.43
4972;BME280;2501;51.214;6.768;2022-09-25T02:51:19;101111.88;;;12.31;92.07
4972;BME280;2501;51.214;6.768;2022-09-25T02:53:56;101114.53;;;12.34;91.21
4972;BME280;2501;51.214;6.768;2022-09-25T02:56:31;101115.38;;;12.33;91.22
4972;BME280;2501;51.214;6.768;2022-09-25T02:59:06;101110.19;;;12.40;90.90
4972;BME280;2501;51.214;6.768;2022-09-25T03:01:40;101111.00;;;12.33;90.25
4972;BME280;2501;51.214;6.768;2022-09-25T03:04:12;101110.06;;;12.16;90.53
4972;BME280;2501;51.214;6.768;2022-09-25T03:06:41;101105.78;;;12.38;90.33
4972;BME280;2501;51.214;6.768;2022-09-25T03:09:11;101112.75;;;12.30;90.11
4972;BME280;2501;51.214;6.768;2022-09-25T03:11:40;101117.16;;;12.35;89.97
4972;BME280;2501;51.214;6.768;2022-09-25T03:14:08;101119.78;;;12.35;89.96
4972;BME280;2501;51.214;6.768;2022-09-25T03:16:43;101114.56;;;12.40;89.78
4972;BME280;2501;51.214;6.768;2022-09-25T03:19:13;101111.91;;;12.35;89.53
4972;BME280;2501;51.214;6.768;2022-09-25T03:21:44;101120.66;;;12.33;89.52
4972;BME280;2501;51.214;6.768;2022-09-25T03:24:13;101117.19;;;12.38;88.83
4972;BME280;2501;51.214;6.768;2022-09-25T03:26:42;101125.94;;;12.37;88.88
4972;BME280;2501;51.214;6.768;2022-09-25T03:29:11;101117.13;;;12.32;88.61
4972;BME280;2501;51.214;6.768;2022-09-25T03:31:42;101117.16;;;12.28;88.49
4972;BME280;2501;51.214;6.768;2022-09-25T03:34:12;101114.53;;;12.29;88.54
4972;BME280;2501;51.214;6.768;2022-09-25T03:36:41;101127.66;;;12.28;88.85
4972;BME280;2501;51.214;6.768;2022-09-25T03:39:13;101123.28;;;12.33;88.97
4972;BME280;2501;51.214;6.768;2022-09-25T03:41:42;101132.03;;;12.24;89.05
4972;BME280;2501;51.214;6.768;2022-09-25T03:44:12;101119.72;;;12.20;89.41
4972;BME280;2501;51.214;6.768;2022-09-25T03:46:43;101136.41;;;12.25;89.71
4972;BME280;2501;51.214;6.768;2022-09-25T03:49:11;101124.13;;;12.24;90.05
4972;BME280;2501;51.214;6.768;2022-09-25T03:51:39;101123.25;;;12.24;90.30
4972;BME280;2501;51.214;6.768;2022-09-25T03:54:08;101126.72;;;12.18;90.10
4972;BME280;2501;51.214;6.768;2022-09-25T03:56:36;101133.72;;;12.14;89.89
4972;BME280;2501;51.214;6.768;2022-09-25T03:59:05;101130.19;;;12.14;90.24
4972;BME280;2501;51.214;6.768;2022-09-25T04:01:33;101131.06;;;12.08;89.86
4972;BME280;2501;51.214;6.768;2022-09-25T04:04:04;101130.19;;;12.08;89.98
4972;BME280;2501;51.214;6.768;2022-09-25T04:06:33;101127.53;;;12.06;89.95
4972;BME280;2501;51.214;6.768;2022-09-25T04:09:01;101126.66;;;12.04;89.69
4972;BME280;2501;51.214;6.768;2022-09-25T04:11:30;101130.09;;;11.94;90.04
4972;BME280;2501;51.214;6.768;2022-09-25T04:13:59;101129.22;;;11.95;90.24
4972;BME280;2501;51.214;6.768;2022-09-25T04:16:27;101130.13;;;12.02;90.49
4972;BME280;2501;51.214;6.768;2022-09-25T04:18:56;101123.09;;;11.93;90.78
4972;BME280;2501;51.214;6.768;2022-09-25T04:21:27;101123.91;;;11.88;90.91
4972;BME280;2501;51.214;6.768;2022-09-25T04:23:56;101123.00;;;11.81;91.36
4972;BME280;2501;51.214;6.768;2022-09-25T04:26:36;101119.53;;;11.87;91.33
4972;BME280;2501;51.214;6.768;2022-09-25T04:29:05;101127.38;;;11.80;91.46
4972;BME280;2501;51.214;6.768;2022-09-25T04:31:33;101118.59;;;11.77;91.41
4972;BME280;2501;51.214;6.768;2022-09-25T04:34:01;101122.06;;;11.74;91.54
4972;BME280;2501;51.214;6.768;2022-09-25T04:36:31;101116.84;;;11.77;91.82
4972;BME280;2501;51.214;6.768;2022-09-25T04:38:59;101110.63;;;11.71;91.90
4972;BME280;2501;51.214;6.768;2022-09-25T04:41:28;101122.91;;;11.73;92.00
4972;BME280;2501;51.214;6.768;2022-09-25T04:43:56;101124.72;;;11.76;92.12
4972;BME280;2501;51.214;6.768;2022-09-25T04:46:24;101127.28;;;11.71;92.04
4972;BME280;2501;51.214;6.768;2022-09-25T04:48:53;101136.84;;;11.65;91.98
4972;BME280;2501;51.214;6.768;2022-09-25T04:51:21;101135.09;;;11.64;91.91
4972;BME280;2501;51.214;6.768;2022-09-25T04:53:52;101133.34;;;11.60;91.70
4972;BME280;2501;51.214;6.768;2022-09-25T04:56:21;101142.09;;;11.63;91.66
4972;BME280;2501;51.214;6.768;2022-09-25T04:58:49;101139.47;;;11.63;91.58
4972;BME280;2501;51.214;6.768;2022-09-25T05:01:19;101133.34;;;11.60;91.26
4972;BME280;2501;51.214;6.768;2022-09-25T05:03:48;101132.44;;;11.58;91.43
4972;BME280;2501;51.214;6.768;2022-09-25T05:06:18;101130.66;;;11.55;91.26
4972;BME280;2501;51.214;6.768;2022-09-25T05:08:47;101130.59;;;11.49;91.22
4972;BME280;2501;51.214;6.768;2022-09-25T05:11:20;101134.09;;;11.49;91.40
4972;BME280;2501;51.214;6.768;2022-09-25T05:13:49;101136.75;;;11.52;91.04
4972;BME280;2501;51.214;6.768;2022-09-25T05:16:18;101135.88;;;11.52;90.97
4972;BME280;2501;51.214;6.768;2022-09-25T05:18:46;101131.53;;;11.54;90.64
4972;BME280;2501;51.214;6.768;2022-09-25T05:21:15;101135.97;;;11.60;90.21
4972;BME280;2501;51.214;6.768;2022-09-25T05:23:43;101132.44;;;11.62;89.99
4972;BME280;2501;51.214;6.768;2022-09-25T05:26:11;101128.09;;;11.64;89.76
4972;BME280;2501;51.214;6.768;2022-09-25T05:28:42;101128.94;;;11.60;89.30
4972;BME280;2501;51.214;6.768;2022-09-25T05:31:11;101126.31;;;11.62;88.62
4972;BME280;2501;51.214;6.768;2022-09-25T05:33:41;101132.44;;;11.61;88.94
4972;BME280;2501;51.214;6.768;2022-09-25T05:36:10;101122.81;;;11.60;89.02
4972;BME280;2501;51.214;6.768;2022-09-25T05:38:39;101132.44;;;11.62;89.02
4972;BME280;2501;51.214;6.768;2022-09-25T05:41:09;101132.44;;;11.59;88.88
4972;BME280;2501;51.214;6.768;2022-09-25T05:43:39;101129.81;;;11.61;88.93
4972;BME280;2501;51.214;6.768;2022-09-25T05:46:10;101134.19;;;11.59;88.77
4972;BME280;2501;51.214;6.768;2022-09-25T05:48:39;101132.41;;;11.53;88.80
4972;BME280;2501;51.214;6.768;2022-09-25T05:51:07;101134.19;;;11.62;88.99
4972;BME280;2501;51.214;6.768;2022-09-25T05:53:36;101137.69;;;11.58;88.38
4972;BME280;2501;51.214;6.768;2022-09-25T05:56:05;101140.34;;;11.64;87.83
4972;BME280;2501;51.214;6.768;2022-09-25T05:58:34;101141.19;;;11.61;87.60
4972;BME280;2501;51.214;6.768;2022-09-25T06:01:04;101136.91;;;11.69;87.48
4972;BME280;2501;51.214;6.768;2022-09-25T06:03:36;101140.41;;;11.71;86.84
4972;BME280;2501;51.214;6.768;2022-09-25T06:06:05;101140.41;;;11.70;86.91
4972;BME280;2501;51.214;6.768;2022-09-25T06:08:33;101142.16;;;11.69;86.70
4972;BME280;2501;51.214;6.768;2022-09-25T06:11:03;101148.38;;;11.76;86.43
4972;BME280;2501;51.214;6.768;2022-09-25T06:13:32;101143.94;;;11.72;86.10
4972;BME280;2501;51.214;6.768;2022-09-25T06:16:12;101143.16;;;11.82;85.78
4972;BME280;2501;51.214;6.768;2022-09-25T06:18:46;101146.59;;;11.75;85.31
4972;BME280;2501;51.214;6.768;2022-09-25T06:21:15;101148.34;;;11.74;85.20
4972;BME280;2501;51.214;6.768;2022-09-25T06:23:43;101151.94;;;11.84;84.96
4972;BME280;2501;51.214;6.768;2022-09-25T06:26:13;101153.59;;;11.74;85.11
4972;BME280;2501;51.214;6.768;2022-09-25T06:28:41;101150.19;;;11.84;85.03
4972;BME280;2501;51.214;6.768;2022-09-25T06:31:09;101158.06;;;11.86;84.60
4972;BME280;2501;51.214;6.768;2022-09-25T06:33:38;101158.91;;;11.80;83.97
4972;BME280;2501;51.214;6.768;2022-09-25T06:36:09;101159.00;;;11.96;84.15
4972;BME280;2501;51.214;6.768;2022-09-25T06:38:37;101159.88;;;11.90;84.04
4972;BME280;2501;51.214;6.768;2022-09-25T06:41:05;101172.03;;;11.80;84.47
4972;BME280;2501;51.214;6.768;2022-09-25T06:43:34;101171.25;;;11.89;84.71
4972;BME280;2501;51.214;6.768;2022-09-25T06:46:02;101172.13;;;11.90;84.48
4972;BME280;2501;51.214;6.768;2022-09-25T06:48:31;101163.41;;;11.97;84.72
4972;BME280;2501;51.214;6.768;2022-09-25T06:50:59;101167.78;;;11.98;84.66
4972;BME280;2501;51.214;6.768;2022-09-25T06:53:30;101167.84;;;12.04;85.06
4972;BME280;2501;51.214;6.768;2022-09-25T06:55:59;101165.06;;;11.82;85.71
4972;BME280;2501;51.214;6.768;2022-09-25T06:58:28;101167.66;;;11.79;86.52
4972;BME280;2501;51.214;6.768;2022-09-25T07:00:57;101163.28;;;11.77;86.89
4972;BME280;2501;51.214;6.768;2022-09-25T07:03:26;101172.84;;;11.73;86.97
4972;BME280;2501;51.214;6.768;2022-09-25T07:06:08;101167.78;;;11.96;86.46
4972;BME280;2501;51.214;6.768;2022-09-25T07:08:40;101172.28;;;12.17;85.42
4972;BME280;2501;51.214;6.768;2022-09-25T07:11:11;101174.00;;;12.07;84.85
4972;BME280;2501;51.214;6.768;2022-09-25T07:13:40;101176.66;;;12.09;85.02
4972;BME280;2501;51.214;6.768;2022-09-25T07:16:11;101171.34;;;12.03;84.66
4972;BME280;2501;51.214;6.768;2022-09-25T07:18:40;101164.59;;;12.55;83.90
4972;BME280;2501;51.214;6.768;2022-09-25T07:21:10;101169.03;;;12.59;82.20
4972;BME280;2501;51.214;6.768;2022-09-25T07:23:42;101168.28;;;13.03;80.05
4972;BME280;2501;51.214;6.768;2022-09-25T07:26:12;101166.53;;;13.03;78.61
4972;BME280;2501;51.214;6.768;2022-09-25T07:28:42;101174.44;;;12.99;78.18
4972;BME280;2501;51.214;6.768;2022-09-25T07:31:12;101179.56;;;12.70;79.54
4972;BME280;2501;51.214;6.768;2022-09-25T07:33:42;101184.84;;;12.71;79.03
4972;BME280;2501;51.214;6.768;2022-09-25T07:36:11;101188.28;;;12.55;79.47
4972;BME280;2501;51.214;6.768;2022-09-25T07:38:43;101182.16;;;12.58;80.35
4972;BME280;2501;51.214;6.768;2022-09-25T07:41:12;101196.22;;;12.60;80.35
4972;BME280;2501;51.214;6.768;2022-09-25T07:43:40;101197.00;;;12.42;80.20
4972;BME280;2501;51.214;6.768;2022-09-25T07:46:09;101190.00;;;12.42;80.26
4972;BME280;2501;51.214;6.768;2022-09-25T07:48:38;101193.41;;;12.32;80.51
4972;BME280;2501;51.214;6.768;2022-09-25T07:51:09;101200.41;;;12.26;80.47
4972;BME280;2501;51.214;6.768;2022-09-25T07:53:38;101194.13;;;12.04;81.73
4972;BME280;2501;51.214;6.768;2022-09-25T07:56:10;101190.75;;;12.25;81.54
4972;BME280;2501;51.214;6.768;2022-09-25T07:58:39;101183.81;;;12.36;81.31
4972;BME280;2501;51.214;6.768;2022-09-25T08:01:10;101189.09;;;12.42;80.85
4972;BME280;2501;51.214;6.768;2022-09-25T08:03:38;101191.56;;;12.14;81.66
4972;BME280;2501;51.214;6.768;2022-09-25T08:06:08;101185.41;;;12.12;82.27
4972;BME280;2501;51.214;6.768;2022-09-25T08:08:38;101184.66;;;12.35;82.00
4972;BME280;2501;51.214;6.768;2022-09-25T08:11:11;101185.59;;;12.43;81.05
4972;BME280;2501;51.214;6.768;2022-09-25T08:13:41;101192.53;;;12.27;81.64
4972;BME280;2501;51.214;6.768;2022-09-25T08:16:12;101189.09;;;12.42;80.94
4972;BME280;2501;51.214;6.768;2022-09-25T08:18:42;101196.13;;;12.47;80.19
4972;BME280;2501;51.214;6.768;2022-09-25T08:21:12;101202.31;;;12.55;80.51
4972;BME280;2501;51.214;6.768;2022-09-25T08:23:42;101192.75;;;12.73;78.96
4972;BME280;2501;51.214;6.768;2022-09-25T08:26:13;101185.72;;;12.70;78.32
4972;BME280;2501;51.214;6.768;2022-09-25T08:28:41;101194.53;;;12.84;78.23
4972;BME280;2501;51.214;6.768;2022-09-25T08:31:10;101199.81;;;12.86;77.66
4972;BME280;2501;51.214;6.768;2022-09-25T08:33:42;101183.19;;;13.02;77.38
4972;BME280;2501;51.214;6.768;2022-09-25T08:36:11;101189.41;;;13.19;76.72
4972;BME280;2501;51.214;6.768;2022-09-25T08:38:40;101180.66;;;13.37;75.32
4972;BME280;2501;51.214;6.768;2022-09-25T08:41:15;101178.06;;;13.45;74.39
4972;BME280;2501;51.214;6.768;2022-09-25T08:43:54;101176.28;;;13.44;73.20
4972;BME280;2501;51.214;6.768;2022-09-25T08:46:34;101174.56;;;13.50;73.33
4972;BME280;2501;51.214;6.768;2022-09-25T08:49:16;101181.56;;;13.54;73.34
4972;BME280;2501;51.214;6.768;2022-09-25T08:51:48;101177.19;;;13.58;72.19
4972;BME280;2501;51.214;6.768;2022-09-25T08:54:21;101178.94;;;13.45;71.23
4972;BME280;2501;51.214;6.768;2022-09-25T08:56:54;101178.03;;;13.55;71.49
4972;BME280;2501;51.214;6.768;2022-09-25T08:59:26;101176.31;;;13.47;70.88
4972;BME280;2501;51.214;6.768;2022-09-25T09:01:57;101180.69;;;13.52;70.88
4972;BME280;2501;51.214;6.768;2022-09-25T09:04:28;101178.94;;;13.50;70.61
4972;BME280;2501;51.214;6.768;2022-09-25T09:07:03;101185.97;;;13.58;69.63
4972;BME280;2501;51.214;6.768;2022-09-25T09:09:35;101185.97;;;13.60;70.10
4972;BME280;2501;51.214;6.768;2022-09-25T09:12:11;101180.69;;;13.62;69.97
4972;BME280;2501;51.214;6.768;2022-09-25T09:14:45;101186.84;;;13.62;69.95
4972;BME280;2501;51.214;6.768;2022-09-25T09:17:16;101175.44;;;13.66;68.47
4972;BME280;2501;51.214;6.768;2022-09-25T09:19:47;101172.78;;;13.93;66.76
4972;BME280;2501;51.214;6.768;2022-09-25T09:22:20;101179.81;;;14.01;65.61
4972;BME280;2501;51.214;6.768;2022-09-25T09:24:54;101177.09;;;14.34;63.75
4972;BME280;2501;51.214;6.768;2022-09-25T09:27:49;101177.97;;;14.42;64.58
4972;BME280;2501;51.214;6.768;2022-09-25T09:30:22;101181.44;;;14.61;63.36
4972;BME280;2501;51.214;6.768;2022-09-25T09:33:12;101180.56;;;14.38;63.57
4972;BME280;2501;51.214;6.768;2022-09-25T09:35:48;101174.44;;;14.42;63.02
4972;BME280;2501;51.214;6.768;2022-09-25T09:38:26;101167.38;;;14.39;62.83
4972;BME280;2501;51.214;6.768;2022-09-25T09:41:12;101170.94;;;14.34;61.79
4972;BME280;2501;51.214;6.768;2022-09-25T09:43:57;101167.44;;;14.22;61.59
4972;BME280;2501;51.214;6.768;2022-09-25T09:46:35;101168.34;;;14.09;62.53
4972;BME280;2501;51.214;6.768;2022-09-25T09:49:11;101170.97;;;14.09;62.18
4972;BME280;2501;51.214;6.768;2022-09-25T09:51:47;101166.59;;;14.07;62.16
4972;BME280;2501;51.214;6.768;2022-09-25T09:54:23;101164.81;;;14.09;62.22
4972;BME280;2501;51.214;6.768;2022-09-25T09:56:55;101164.81;;;14.19;62.21
4972;BME280;2501;51.214;6.768;2022-09-25T09:59:28;101157.75;;;14.37;61.68
4972;BME280;2501;51.214;6.768;2022-09-25T10:02:00;101154.16;;;14.57;61.26
4972;BME280;2501;51.214;6.768;2022-09-25T10:04:34;101152.44;;;14.44;61.16
4972;BME280;2501;51.214;6.768;2022-09-25T10:07:07;101160.28;;;14.72;60.61
4972;BME280;2501;51.214;6.768;2022-09-25T10:09:37;101159.44;;;14.60;60.01
4972;BME280;2501;51.214;6.768;2022-09-25T10:12:11;101163.88;;;14.43;60.23
4972;BME280;2501;51.214;6.768;2022-09-25T10:14:45;101160.22;;;14.78;59.11
4972;BME280;2501;51.214;6.768;2022-09-25T10:17:14;101149.53;;;15.02;57.88
4972;BME280;2501;51.214;6.768;2022-09-25T10:19:47;101141.72;;;14.87;57.66
4972;BME280;2501;51.214;6.768;2022-09-25T10:22:20;101146.06;;;14.95;57.27
4972;BME280;2501;51.214;6.768;2022-09-25T10:24:54;101146.91;;;14.99;57.62
4972;BME280;2501;51.214;6.768;2022-09-25T10:27:28;101152.19;;;15.02;57.65
4972;BME280;2501;51.214;6.768;2022-09-25T10:30:16;101147.72;;;15.07;56.44
4972;BME280;2501;51.214;6.768;2022-09-25T10:33:00;101145.25;;;14.86;59.38
4972;BME280;2501;51.214;6.768;2022-09-25T10:35:43;101150.34;;;15.12;60.54
4972;BME280;2501;51.214;6.768;2022-09-25T10:38:23;101145.28;;;14.74;60.20
4972;BME280;2501;51.214;6.768;2022-09-25T10:40:59;101142.72;;;14.61;60.43
4972;BME280;2501;51.214;6.768;2022-09-25T10:43:29;101140.06;;;14.68;60.13
4972;BME280;2501;51.214;6.768;2022-09-25T10:46:12;101137.22;;;14.98;59.43
4972;BME280;2501;51.214;6.768;2022-09-25T10:49:11;101145.09;;;15.07;58.44
4972;BME280;2501;51.214;6.768;2022-09-25T10:52:00;101146.06;;;14.95;58.66
4972;BME280;2501;51.214;6.768;2022-09-25T10:54:30;101137.16;;;15.10;58.29
4972;BME280;2501;51.214;6.768;2022-09-25T10:56:59;101135.13;;;15.47;57.47
4972;BME280;2501;51.214;6.768;2022-09-25T10:59:28;101138.38;;;15.83;56.79
4972;BME280;2501;51.214;6.768;2022-09-25T11:01:59;101136.34;;;14.99;55.69
4972;BME280;2501;51.214;6.768;2022-09-25T11:04:30;101137.22;;;15.03;56.48
4972;BME280;2501;51.214;6.768;2022-09-25T11:07:02;101137.09;;;15.19;55.88
4972;BME280;2501;51.214;6.768;2022-09-25T11:09:32;101133.63;;;15.10;56.72
4972;BME280;2501;51.214;6.768;2022-09-25T11:12:11;101133.34;;;15.48;56.72
4972;BME280;2501;51.214;6.768;2022-09-25T11:14:44;101137.75;;;15.50;56.21
4972;BME280;2501;51.214;6.768;2022-09-25T11:17:31;101141.53;;;15.16;58.00
4972;BME280;2501;51.214;6.768;2022-09-25T11:20:28;101140.63;;;15.20;58.10
4972;BME280;2501;51.214;6.768;2022-09-25T11:23:14;101136.34;;;15.02;58.14
4972;BME280;2501;51.214;6.768;2022-09-25T11:25:50;101131.19;;;14.75;58.34
4972;BME280;2501;51.214;6.768;2022-09-25T11:28:27;101135.56;;;14.86;57.32
4972;BME280;2501;51.214;6.768;2022-09-25T11:31:02;101130.97;;;15.11;56.69
4972;BME280;2501;51.214;6.768;2022-09-25T11:33:42;101126.47;;;15.25;55.87
4972;BME280;2501;51.214;6.768;2022-09-25T11:36:16;101129.22;;;15.09;56.22
4972;BME280;2501;51.214;6.768;2022-09-25T11:38:47;101122.13;;;15.23;55.15
4972;BME280;2501;51.214;6.768;2022-09-25T11:41:32;101119.38;;;15.32;55.76
4972;BME280;2501;51.214;6.768;2022-09-25T11:44:18;101117.44;;;15.54;55.23
4972;BME280;2501;51.214;6.768;2022-09-25T11:46:56;101114.72;;;15.66;55.86
4972;BME280;2501;51.214;6.768;2022-09-25T11:49:33;101112.84;;;15.79;54.74
4972;BME280;2501;51.214;6.768;2022-09-25T11:52:26;101116.19;;;15.96;54.42
4972;BME280;2501;51.214;6.768;2022-09-25T11:58:29;101115.53;;;15.74;52.69
4972;BME280;2501;51.214;6.768;2022-09-25T12:01:07;101113.84;;;15.64;52.65
4972;BME280;2501;51.214;6.768;2022-09-25T12:03:49;101112.94;;;15.68;53.22
4972;BME280;2501;51.214;6.768;2022-09-25T12:06:44;101118.94;;;15.85;53.55
4972;BME280;2501;51.214;6.768;2022-09-25T12:09:31;101108.53;;;15.69;54.34
4972;BME280;2501;51.214;6.768;2022-09-25T12:12:13;101100.69;;;15.55;54.05
4972;BME280;2501;51.214;6.768;2022-09-25T12:14:51;101094.25;;;15.86;51.75
4972;BME280;2501;51.214;6.768;2022-09-25T12:17:28;101095.22;;;15.76;51.07
4972;BME280;2501;51.214;6.768;2022-09-25T12:20:10;101089.47;;;16.19;51.05
4972;BME280;2501;51.214;6.768;2022-09-25T12:22:49;101089.44;;;16.23;51.80
4972;BME280;2501;51.214;6.768;2022-09-25T12:25:34;101088.59;;;16.20;51.65
4972;BME280;2501;51.214;6.768;2022-09-25T12:28:22;101080.69;;;16.17;51.45
4972;BME280;2501;51.214;6.768;2022-09-25T12:31:02;101079.72;;;16.25;50.78
4972;BME280;2501;51.214;6.768;2022-09-25T12:33:38;101084.91;;;16.30;51.07
4972;BME280;2501;51.214;6.768;2022-09-25T12:36:15;101077.19;;;16.12;51.87
4972;BME280;2501;51.214;6.768;2022-09-25T12:38:50;101086.31;;;15.86;52.69
4972;BME280;2501;51.214;6.768;2022-09-25T12:41:25;101066.03;;;15.87;52.81
4972;BME280;2501;51.214;6.768;2022-09-25T12:44:02;101071.53;;;15.65;54.40
4972;BME280;2501;51.214;6.768;2022-09-25T12:46:37;101068.03;;;15.65;55.05
4972;BME280;2501;51.214;6.768;2022-09-25T12:49:12;101073.44;;;15.48;55.40
4972;BME280;2501;51.214;6.768;2022-09-25T12:51:45;101074.31;;;15.47;55.78
4972;BME280;2501;51.214;6.768;2022-09-25T12:54:22;101061.06;;;15.56;54.09
4972;BME280;2501;51.214;6.768;2022-09-25T12:56:56;101056.56;;;15.66;53.37
4972;BME280;2501;51.214;6.768;2022-09-25T12:59:31;101045.97;;;15.66;52.52
4972;BME280;2501;51.214;6.768;2022-09-25T13:02:07;101043.19;;;15.80;51.37
4972;BME280;2501;51.214;6.768;2022-09-25T13:04:52;101042.31;;;15.79;51.85
4972;BME280;2501;51.214;6.768;2022-09-25T13:07:26;101041.22;;;15.95;51.99
4972;BME280;2501;51.214;6.768;2022-09-25T13:10:01;101031.63;;;15.90;51.77
4972;BME280;2501;51.214;6.768;2022-09-25T13:12:33;101039.28;;;16.11;50.90
4972;BME280;2501;51.214;6.768;2022-09-25T13:15:05;101038.09;;;15.61;50.81
4972;BME280;2501;51.214;6.768;2022-09-25T13:17:34;101039.97;;;15.44;51.47
4972;BME280;2501;51.214;6.768;2022-09-25T13:23:04;101031.75;;;15.76;51.98
4972;BME280;2501;51.214;6.768;2022-09-25T13:25:43;101026.44;;;15.79;50.11
4972;BME280;2501;51.214;6.768;2022-09-25T13:28:19;101027.25;;;15.86;49.71
4972;BME280;2501;51.214;6.768;2022-09-25T13:31:04;101015.22;;;16.31;48.66
4972;BME280;2501;51.214;6.768;2022-09-25T13:33:37;101016.94;;;16.96;47.06
4972;BME280;2501;51.214;6.768;2022-09-25T13:36:26;101022.03;;;15.80;47.44
4972;BME280;2501;51.214;6.768;2022-09-25T13:38:59;101014.09;;;15.80;48.55
4972;BME280;2501;51.214;6.768;2022-09-25T13:41:51;101010.56;;;15.79;49.50
4972;BME280;2501;51.214;6.768;2022-09-25T13:44:37;101005.38;;;15.72;49.84
4972;BME280;2501;51.214;6.768;2022-09-25T13:50:30;101000.16;;;15.64;50.08
4972;BME280;2501;51.214;6.768;2022-09-25T13:53:14;101003.78;;;15.52;50.10